This is the latest recevied weather packets stored in our database for station/object NY3Q. If no packets are shown the sender has not sent any weather packets the latest 10 day(s).
| Time | Temp. | Humidity | Pressure | Rain* | Wind** | Luminosity | Snow |
|---|---|---|---|---|---|---|---|
| 1777478204 | 30.56° C | 58% | 1015.4 hPa | 0 mm | - | 573 W/m² | - |
| 1777477901 | 30.56° C | 57% | 1015.4 hPa | 0 mm | - | 483 W/m² | - |
| 1777477596 | 30° C | 60% | 1015.6 hPa | 0 mm | - | 539 W/m² | - |
| 1777477292 | 30° C | 59% | 1015.5 hPa | 0 mm | - | 565 W/m² | - |
| 1777476989 | 29.44° C | 62% | 1015.7 hPa | 0 mm | - | 558 W/m² | - |
| 1777476687 | 29.44° C | 62% | 1015.8 hPa | 0 mm | - | 497 W/m² | - |
| 1777476383 | 28.89° C | 63% | 1016 hPa | 0 mm | - | 518 W/m² | - |
| 1777476081 | 28.89° C | 63% | 1016 hPa | 0 mm | - | 514 W/m² | - |
| 1777475781 | 28.89° C | 63% | 1016.1 hPa | 0 mm | - | 398 W/m² | - |
| 1777475478 | 28.89° C | 63% | 1016.1 hPa | 0 mm | - | 359 W/m² | - |
| 1777475173 | 28.33° C | 64% | 1016.5 hPa | 0 mm | - | 310 W/m² | - |
| 1777474870 | 28.89° C | 64% | 1016.5 hPa | 0 mm | - | 531 W/m² | - |
| 1777474565 | 27.78° C | 66% | 1016.5 hPa | 0 mm | - | 455 W/m² | - |
| 1777474262 | 26.67° C | 70% | 1016.6 hPa | 0 mm | - | 468 W/m² | - |
| 1777473959 | 26.67° C | 69% | 1016.6 hPa | 0 mm | - | 251 W/m² | - |
| 1777473657 | 26.11° C | 70% | 1016.9 hPa | 0 mm | - | 242 W/m² | - |
| 1777473353 | 26.11° C | 70% | 1016.7 hPa | 0 mm | - | 169 W/m² | - |
| 1777473049 | 26.11° C | 69% | 1016.7 hPa | 0 mm | - | 125 W/m² | - |
| 1777472745 | 26.67° C | 68% | 1016.9 hPa | 0 mm | - | 121 W/m² | - |
| 1777472442 | 27.22° C | 67% | 1016.7 hPa | 0 mm | - | 156 W/m² | - |
| 1777472140 | 26.67° C | 69% | 1016.7 hPa | 0 mm | - | 497 W/m² | - |
| 1777471839 | 26.67° C | 69% | 1017 hPa | 0 mm | - | 262 W/m² | - |
| 1777471537 | 26.11° C | 70% | 1017.2 hPa | 0 mm | - | 340 W/m² | - |
| 1777471233 | 26.11° C | 71% | 1017.2 hPa | 0 mm | - | 260 W/m² | - |
| 1777470930 | 26.11° C | 71% | 1017.2 hPa | 0 mm | - | 248 W/m² | - |
* Rain latest hour (hover to see other rain measurements)
** Current wind speed in m/s (hover to see current wind gust speed)